createdAt,value
2018-02-07T00:01:50.231Z,16.30
2018-02-07T00:04:18.798Z,17.20
2018-02-07T00:06:47.352Z,16.67
2018-02-07T00:09:16.672Z,17.58
2018-02-07T00:11:45.225Z,19.20
2018-02-07T00:14:14.530Z,17.55
2018-02-07T00:16:43.088Z,15.98
2018-02-07T00:19:11.638Z,17.48
2018-02-07T00:21:40.196Z,19.55
2018-02-07T00:24:08.936Z,20.88
2018-02-07T00:26:37.474Z,22.13
2018-02-07T00:29:06.186Z,19.05
2018-02-07T00:31:35.494Z,20.67
2018-02-07T00:34:03.826Z,20.27
2018-02-07T00:36:32.361Z,19.98
2018-02-07T00:39:01.721Z,21.35
2018-02-07T00:41:30.291Z,18.08
2018-02-07T00:43:58.871Z,18.95
2018-02-07T00:46:27.400Z,19.80
2018-02-07T00:48:55.976Z,17.83
2018-02-07T00:51:24.542Z,21.02
2018-02-07T00:53:53.100Z,20.60
2018-02-07T00:56:21.663Z,20.62
2018-02-07T00:58:50.222Z,20.45
2018-02-07T01:01:18.765Z,19.48
2018-02-07T01:03:47.321Z,18.35
2018-02-07T01:06:16.629Z,19.83
2018-02-07T01:08:45.188Z,21.55
2018-02-07T01:11:13.749Z,22.30
2018-02-07T01:13:42.295Z,21.12
2018-02-07T01:16:10.515Z,18.73
2018-02-07T01:18:39.073Z,20.85
2018-02-07T01:21:07.636Z,18.35
2018-02-07T01:23:36.201Z,18.42
2018-02-07T01:26:04.751Z,21.50
2018-02-07T01:28:33.326Z,22.13
2018-02-07T01:31:01.650Z,23.25
2018-02-07T01:33:30.213Z,22.35
2018-02-07T01:35:58.796Z,24.02
2018-02-07T01:38:27.348Z,23.02
2018-02-07T01:40:55.912Z,24.45
2018-02-07T01:43:24.488Z,24.60
2018-02-07T01:45:53.025Z,25.52
2018-02-07T01:48:22.353Z,24.92
2018-02-07T01:50:50.869Z,26.73
2018-02-07T01:53:19.423Z,24.90
2018-02-07T01:55:48.055Z,24.73
2018-02-07T01:58:16.606Z,23.45
2018-02-07T02:00:45.154Z,25.23
2018-02-07T02:03:13.703Z,21.83
2018-02-07T02:05:42.263Z,22.13
2018-02-07T02:08:10.815Z,21.60
2018-02-07T02:10:39.361Z,21.02
2018-02-07T02:13:07.929Z,22.52
2018-02-07T02:15:36.473Z,22.37
2018-02-07T02:18:05.020Z,21.95
2018-02-07T02:20:33.572Z,20.05
2018-02-07T02:23:02.416Z,23.08
2018-02-07T02:25:30.994Z,22.67
2018-02-07T02:27:59.555Z,23.02
2018-02-07T02:30:28.318Z,23.42
2018-02-07T02:32:56.853Z,23.75
2018-02-07T02:35:25.440Z,23.60
2018-02-07T02:37:54.165Z,23.50
2018-02-07T02:40:22.755Z,27.80
2018-02-07T02:42:51.287Z,28.58
2018-02-07T02:45:19.822Z,29.42
2018-02-07T02:47:48.424Z,29.92
2018-02-07T02:50:16.969Z,30.02
2018-02-07T02:52:45.509Z,32.28
2018-02-07T02:55:14.049Z,30.25
2018-02-07T02:57:42.589Z,26.85
2018-02-07T03:00:11.141Z,32.22
2018-02-07T03:02:39.688Z,29.58
2018-02-07T03:05:08.236Z,29.10
2018-02-07T03:07:36.465Z,26.52
2018-02-07T03:10:05.005Z,30.98
2018-02-07T03:12:33.555Z,27.55
2018-02-07T03:15:02.099Z,27.58
2018-02-07T03:17:30.651Z,27.52
2018-02-07T03:19:59.202Z,29.58
2018-02-07T03:22:27.741Z,27.58
2018-02-07T03:24:56.300Z,31.15
2018-02-07T03:27:24.888Z,28.30
2018-02-07T03:29:53.694Z,26.23
2018-02-07T03:32:22.233Z,26.58
2018-02-07T03:34:50.787Z,27.35
2018-02-07T03:37:19.330Z,26.10
2018-02-07T03:39:47.940Z,23.85
2018-02-07T03:42:16.499Z,29.05
2018-02-07T03:44:44.855Z,26.20
2018-02-07T03:47:13.406Z,27.00
2018-02-07T03:49:41.954Z,25.58
2018-02-07T03:52:10.512Z,25.95
2018-02-07T03:54:39.041Z,26.33
2018-02-07T03:57:07.598Z,27.27
2018-02-07T03:59:36.160Z,24.35
2018-02-07T04:02:04.706Z,28.35
2018-02-07T04:04:33.241Z,24.92
2018-02-07T04:07:01.798Z,27.85
2018-02-07T04:09:30.352Z,30.30
2018-02-07T04:11:58.904Z,33.05
2018-02-07T04:14:27.473Z,28.98
2018-02-07T04:16:56.017Z,29.08
2018-02-07T04:19:24.612Z,27.13
2018-02-07T04:21:53.175Z,28.65
2018-02-07T04:24:21.702Z,29.25
2018-02-07T04:26:50.255Z,29.70
2018-02-07T04:29:18.819Z,28.38
2018-02-07T04:31:47.472Z,31.00
2018-02-07T04:34:16.048Z,31.50
2018-02-07T04:36:44.611Z,28.62
2018-02-07T04:39:13.159Z,28.48
2018-02-07T04:41:41.699Z,27.95
2018-02-07T04:44:10.266Z,29.60
2018-02-07T04:46:38.810Z,29.40
2018-02-07T04:49:07.351Z,30.45
2018-02-07T04:51:35.915Z,28.70
2018-02-07T04:54:05.240Z,28.27
2018-02-07T04:56:33.825Z,26.15
2018-02-07T04:59:02.371Z,26.98
2018-02-07T05:01:30.944Z,28.10
2018-02-07T05:03:59.494Z,25.77
2018-02-07T05:06:28.042Z,27.00
2018-02-07T05:08:56.588Z,28.35
2018-02-07T05:11:25.148Z,29.12
2018-02-07T05:13:53.687Z,30.25
2018-02-07T05:16:22.245Z,28.17
2018-02-07T05:18:50.789Z,27.52
2018-02-07T05:21:19.333Z,26.70
2018-02-07T05:23:47.905Z,29.00
2018-02-07T05:26:16.460Z,30.42
2018-02-07T05:28:45.106Z,30.60
2018-02-07T05:31:13.652Z,30.65
2018-02-07T05:33:42.274Z,29.40
2018-02-07T05:36:10.807Z,29.12
2018-02-07T05:38:39.407Z,34.08
2018-02-07T05:41:07.960Z,27.87
2018-02-07T05:43:36.513Z,34.05
2018-02-07T05:46:05.065Z,34.33
2018-02-07T05:48:33.603Z,33.70
2018-02-07T05:51:02.180Z,35.22
2018-02-07T05:53:30.720Z,38.65
2018-02-07T05:55:59.277Z,36.38
2018-02-07T05:58:27.829Z,39.33
2018-02-07T06:00:56.379Z,38.63
2018-02-07T06:03:24.925Z,35.72
2018-02-07T06:05:53.501Z,34.08
2018-02-07T06:08:22.036Z,35.33
2018-02-07T06:10:50.596Z,34.03
2018-02-07T06:13:19.152Z,37.15
2018-02-07T06:15:48.336Z,36.17
2018-02-07T06:18:16.879Z,36.67
2018-02-07T06:20:45.432Z,34.72
2018-02-07T06:23:14.041Z,30.73
2018-02-07T06:25:42.573Z,34.50
2018-02-07T06:28:11.137Z,31.12
2018-02-07T06:30:39.674Z,31.65
2018-02-07T06:33:08.236Z,32.42
2018-02-07T06:35:36.776Z,35.08
2018-02-07T06:38:05.327Z,31.15
2018-02-07T06:40:33.882Z,34.70
2018-02-07T06:43:02.445Z,33.65
2018-02-07T06:45:31.001Z,35.60
2018-02-07T06:47:59.613Z,33.95
2018-02-07T06:50:28.152Z,33.75
2018-02-07T06:52:56.688Z,38.03
2018-02-07T06:55:25.248Z,36.30
2018-02-07T06:57:53.786Z,33.50
2018-02-07T07:00:22.351Z,33.38
2018-02-07T07:02:51.091Z,35.97
2018-02-07T07:05:19.723Z,32.28
2018-02-07T07:07:48.277Z,38.50
2018-02-07T07:10:16.836Z,35.17
2018-02-07T07:12:46.165Z,36.75
2018-02-07T07:15:14.736Z,37.72
2018-02-07T07:17:43.310Z,39.15
2018-02-07T07:20:11.882Z,38.17
2018-02-07T07:22:40.419Z,36.40
2018-02-07T07:25:08.993Z,39.33
2018-02-07T07:27:38.320Z,62.72
2018-02-07T07:30:06.870Z,70.22
2018-02-07T07:32:36.178Z,53.83
2018-02-07T07:35:04.759Z,46.00
2018-02-07T07:37:33.304Z,45.05
2018-02-07T07:40:01.884Z,36.53
2018-02-07T07:42:30.450Z,39.58
2018-02-07T07:44:58.998Z,42.75
2018-02-07T07:47:27.763Z,43.80
2018-02-07T07:49:56.147Z,43.40
2018-02-07T07:52:24.735Z,47.28
2018-02-07T07:54:53.299Z,52.28
2018-02-07T07:57:21.842Z,47.55
2018-02-07T07:59:50.379Z,47.62
2018-02-07T08:02:18.952Z,45.72
2018-02-07T08:04:47.517Z,50.17
2018-02-07T08:07:16.073Z,45.45
2018-02-07T08:09:44.628Z,47.95
2018-02-07T08:12:13.259Z,50.55
2018-02-07T08:14:41.813Z,47.95
2018-02-07T08:17:10.374Z,47.22
2018-02-07T08:19:38.928Z,47.62
2018-02-07T08:22:07.486Z,47.40
2018-02-07T08:24:36.054Z,52.15
2018-02-07T08:27:04.617Z,50.10
2018-02-07T08:29:33.301Z,48.83
2018-02-07T08:32:02.630Z,43.97
2018-02-07T08:34:31.178Z,42.22
2018-02-07T08:36:59.731Z,41.03
2018-02-07T08:39:28.297Z,42.80
2018-02-07T08:41:56.889Z,36.10
2018-02-07T08:44:25.443Z,35.17
2018-02-07T08:46:54.810Z,34.50
2018-02-07T08:49:23.348Z,33.28
2018-02-07T08:51:51.879Z,29.67
2018-02-07T08:54:20.460Z,32.55
2018-02-07T08:56:49.021Z,29.15
2018-02-07T08:59:17.668Z,30.65
2018-02-07T09:01:46.208Z,27.10
2018-02-07T09:04:14.493Z,28.40
2018-02-07T09:06:43.053Z,23.65
2018-02-07T09:09:11.602Z,26.92
2018-02-07T09:11:40.155Z,25.55
2018-02-07T09:14:08.717Z,23.17
2018-02-07T09:16:37.296Z,24.30
2018-02-07T09:19:05.878Z,22.95
2018-02-07T09:21:34.454Z,21.98
2018-02-07T09:24:03.014Z,22.02
2018-02-07T09:26:31.382Z,21.67
2018-02-07T09:28:59.741Z,19.85
2018-02-07T09:31:28.329Z,19.83
2018-02-07T09:33:56.878Z,19.52
2018-02-07T09:36:25.139Z,20.67
2018-02-07T09:38:53.699Z,17.77
2018-02-07T09:41:21.982Z,17.90
2018-02-07T09:43:50.569Z,17.45
2018-02-07T09:46:18.825Z,16.63
2018-02-07T09:48:47.444Z,16.48
2018-02-07T09:51:15.750Z,16.13
2018-02-07T09:53:44.797Z,13.83
2018-02-07T09:56:13.065Z,12.80
2018-02-07T09:58:41.372Z,14.30
2018-02-07T10:01:09.664Z,13.93
2018-02-07T10:03:37.939Z,11.23
2018-02-07T10:06:06.229Z,11.27
2018-02-07T10:08:34.527Z,12.93
2018-02-07T10:11:02.827Z,12.40
2018-02-07T10:13:31.117Z,12.77
2018-02-07T10:16:01.853Z,12.87
2018-02-07T10:18:30.152Z,11.77
2018-02-07T10:20:58.478Z,13.30
2018-02-07T10:23:26.756Z,13.23
2018-02-07T10:25:55.029Z,12.27
2018-02-07T10:28:24.821Z,13.57
2018-02-07T10:30:53.128Z,10.47
2018-02-07T10:33:23.282Z,12.13
2018-02-07T10:35:51.541Z,11.93
2018-02-07T10:38:19.807Z,10.27
2018-02-07T10:40:48.097Z,13.57
2018-02-07T10:43:17.901Z,10.53
2018-02-07T10:45:46.206Z,9.67
2018-02-07T10:48:14.676Z,9.43
2018-02-07T10:50:42.932Z,9.83
2018-02-07T10:53:11.205Z,9.57
2018-02-07T10:55:39.468Z,8.97
2018-02-07T10:58:07.835Z,10.10
2018-02-07T11:00:36.085Z,8.47
2018-02-07T11:03:03.789Z,8.90
2018-02-07T11:05:32.050Z,9.73
2018-02-07T11:08:00.313Z,9.10
2018-02-07T11:10:28.586Z,10.97
2018-02-07T11:12:56.883Z,9.93
2018-02-07T11:15:25.147Z,10.67
2018-02-07T11:17:53.428Z,9.17
2018-02-07T11:20:21.722Z,9.77
2018-02-07T11:22:50.764Z,10.07
2018-02-07T11:25:19.050Z,10.80
2018-02-07T11:27:47.327Z,9.57
2018-02-07T11:30:15.619Z,10.70
2018-02-07T11:32:43.887Z,8.47
2018-02-07T11:35:12.185Z,10.13
2018-02-07T11:37:40.481Z,9.87
2018-02-07T11:40:08.772Z,9.40
2018-02-07T11:42:37.050Z,10.37
2018-02-07T11:45:05.109Z,7.50
2018-02-07T11:47:33.428Z,8.07
2018-02-07T11:50:01.867Z,8.33
2018-02-07T11:52:30.155Z,7.97
2018-02-07T11:54:58.426Z,8.10
2018-02-07T11:57:26.718Z,8.33
2018-02-07T11:59:54.979Z,6.87
2018-02-07T12:02:23.265Z,7.63
2018-02-07T12:04:51.537Z,6.30
2018-02-07T12:07:19.793Z,7.17
2018-02-07T12:09:48.065Z,7.00
2018-02-07T12:12:16.347Z,7.73
2018-02-07T12:14:44.603Z,7.90
2018-02-07T12:17:12.889Z,7.07
2018-02-07T12:19:41.150Z,8.57
2018-02-07T12:22:09.419Z,7.97
2018-02-07T12:24:37.676Z,6.63
2018-02-07T12:27:05.968Z,6.63
2018-02-07T12:29:34.231Z,8.77
2018-02-07T12:32:03.287Z,7.50
2018-02-07T12:34:31.552Z,7.77
2018-02-07T12:36:59.818Z,6.43
2018-02-07T12:39:28.096Z,7.17
2018-02-07T12:41:56.411Z,6.67
2018-02-07T12:44:24.847Z,6.33
2018-02-07T12:46:53.145Z,7.10
2018-02-07T12:49:21.404Z,6.40
2018-02-07T12:51:49.664Z,5.93
2018-02-07T12:54:17.936Z,7.03
2018-02-07T12:56:46.213Z,6.90
2018-02-07T12:59:14.520Z,6.53
2018-02-07T13:01:42.805Z,6.83
2018-02-07T13:04:11.055Z,7.37
2018-02-07T13:06:39.337Z,7.50
2018-02-07T13:09:07.638Z,7.43
2018-02-07T13:11:35.920Z,6.60
2018-02-07T13:14:04.206Z,7.23
2018-02-07T13:16:32.503Z,7.90
2018-02-07T13:19:00.755Z,6.57
2018-02-07T13:21:29.038Z,7.30
2018-02-07T13:23:57.367Z,7.50
2018-02-07T13:26:25.879Z,6.20
2018-02-07T13:28:54.206Z,6.23
2018-02-07T13:31:22.494Z,8.77
2018-02-07T13:33:50.777Z,7.43
2018-02-07T13:36:19.056Z,6.83
2018-02-07T13:38:47.337Z,6.67
2018-02-07T13:41:15.600Z,10.40
2018-02-07T13:43:43.858Z,8.40
2018-02-07T13:46:12.145Z,9.13
2018-02-07T13:48:40.418Z,7.87
2018-02-07T13:51:08.695Z,7.23
2018-02-07T13:53:36.628Z,9.77
2018-02-07T13:56:04.889Z,9.17
2018-02-07T13:58:33.932Z,7.60
2018-02-07T14:01:02.258Z,9.77
2018-02-07T14:03:30.690Z,9.73
2018-02-07T14:05:58.965Z,8.60
2018-02-07T14:08:27.264Z,9.70
2018-02-07T14:10:55.561Z,8.67
2018-02-07T14:13:23.671Z,8.47
2018-02-07T14:15:51.945Z,9.57
2018-02-07T14:18:20.243Z,10.33
2018-02-07T14:20:48.512Z,10.13
2018-02-07T14:23:16.782Z,8.50
2018-02-07T14:25:45.077Z,8.87
2018-02-07T14:28:13.347Z,8.00
2018-02-07T14:30:41.631Z,9.43
2018-02-07T14:33:09.723Z,8.33
2018-02-07T14:35:38.752Z,8.13
2018-02-07T14:38:07.007Z,8.90
2018-02-07T14:40:34.960Z,8.80
2018-02-07T14:43:03.240Z,8.77
2018-02-07T14:45:31.527Z,8.93
2018-02-07T14:47:59.789Z,7.03
2018-02-07T14:50:28.127Z,7.00
2018-02-07T14:52:56.409Z,7.30
2018-02-07T14:55:24.738Z,7.00
2018-02-07T14:57:53.019Z,8.90
2018-02-07T15:00:21.294Z,8.40
2018-02-07T15:02:49.574Z,7.30
2018-02-07T15:05:17.853Z,6.80
2018-02-07T15:07:46.138Z,7.00
2018-02-07T15:10:14.439Z,10.43
2018-02-07T15:12:42.727Z,8.07
2018-02-07T15:15:11.127Z,6.93
2018-02-07T15:17:39.723Z,9.57
2018-02-07T15:20:08.217Z,8.07
2018-02-07T15:22:36.501Z,8.17
2018-02-07T15:25:05.667Z,7.97
2018-02-07T15:27:36.699Z,8.43
2018-02-07T15:30:04.741Z,9.50
2018-02-07T15:32:33.025Z,7.90
2018-02-07T15:35:01.308Z,8.93
2018-02-07T15:37:29.618Z,7.93
2018-02-07T15:39:57.888Z,9.97
2018-02-07T15:42:25.994Z,8.63
2018-02-07T15:44:54.284Z,10.03
2018-02-07T15:47:22.567Z,9.33
2018-02-07T15:49:50.859Z,8.10
2018-02-07T15:52:19.126Z,8.30
2018-02-07T15:54:47.433Z,9.93
2018-02-07T15:57:15.758Z,10.03
2018-02-07T15:59:44.092Z,9.33
2018-02-07T16:02:12.381Z,7.73
2018-02-07T16:04:40.690Z,9.73
2018-02-07T16:07:09.024Z,11.20
2018-02-07T16:09:38.060Z,11.77
2018-02-07T16:12:06.349Z,9.80
2018-02-07T16:14:34.610Z,9.40
2018-02-07T16:17:02.896Z,11.60
2018-02-07T16:22:08.350Z,10.47
2018-02-07T16:24:36.640Z,11.53
2018-02-07T16:27:05.082Z,12.13
2018-02-07T16:29:34.150Z,9.53
2018-02-07T16:32:03.957Z,9.97
2018-02-07T16:34:32.251Z,8.17
2018-02-07T16:37:00.552Z,10.47
2018-02-07T16:39:28.831Z,10.97
2018-02-07T16:41:57.097Z,9.13
2018-02-07T16:44:25.426Z,8.73
2018-02-07T16:46:53.856Z,7.97
2018-02-07T16:49:22.127Z,9.47
2018-02-07T16:51:50.400Z,11.10
2018-02-07T16:54:18.703Z,8.23
2018-02-07T16:56:46.989Z,8.93
2018-02-07T16:59:15.476Z,12.37
2018-02-07T17:01:43.855Z,11.10
2018-02-07T17:04:12.137Z,13.57
2018-02-07T17:06:40.431Z,9.93
2018-02-07T17:09:08.737Z,9.90
2018-02-07T17:11:37.034Z,10.60
2018-02-07T17:14:05.309Z,10.23
2018-02-07T17:16:33.564Z,9.90
2018-02-07T17:19:01.867Z,9.20
2018-02-07T17:21:29.824Z,11.17
2018-02-07T17:23:58.120Z,9.07
2018-02-07T17:26:26.388Z,11.43
2018-02-07T17:28:54.684Z,8.20
2018-02-07T17:31:22.772Z,10.80
2018-02-07T17:33:50.617Z,12.40
2018-02-07T17:36:18.915Z,10.00
2018-02-07T17:38:47.175Z,16.67
2018-02-07T17:41:15.470Z,10.40
2018-02-07T17:43:43.742Z,11.80
2018-02-07T17:46:12.038Z,13.63
2018-02-07T17:48:40.340Z,13.30
2018-02-07T17:51:08.640Z,11.20
2018-02-07T17:53:36.930Z,13.50
2018-02-07T17:56:05.233Z,11.67
2018-02-07T17:58:33.528Z,12.80
2018-02-07T18:01:01.804Z,12.40
2018-02-07T18:03:30.094Z,13.53
2018-02-07T18:05:58.554Z,12.83
2018-02-07T18:08:26.843Z,12.60
2018-02-07T18:10:55.871Z,13.30
2018-02-07T18:13:24.137Z,11.43
2018-02-07T18:15:52.433Z,15.50
2018-02-07T18:18:20.704Z,13.17
2018-02-07T18:20:48.995Z,12.53
2018-02-07T18:23:17.323Z,15.83
2018-02-07T18:25:45.618Z,17.43
2018-02-07T18:28:13.971Z,27.07
2018-02-07T18:30:42.383Z,18.40
2018-02-07T18:33:10.686Z,16.40
2018-02-07T18:35:39.004Z,16.60
2018-02-07T18:38:07.281Z,17.20
2018-02-07T18:40:35.647Z,17.93
2018-02-07T18:43:04.697Z,16.07
2018-02-07T18:45:33.876Z,19.40
2018-02-07T18:48:02.174Z,16.27
2018-02-07T18:50:30.449Z,18.20
2018-02-07T18:52:58.781Z,18.07
2018-02-07T18:55:27.090Z,17.27
2018-02-07T18:57:55.414Z,23.03
2018-02-07T19:00:23.805Z,27.63
2018-02-07T19:02:52.103Z,19.73
2018-02-07T19:05:21.179Z,22.63
2018-02-07T19:07:49.481Z,21.17
2018-02-07T19:10:17.782Z,18.27
2018-02-07T19:12:46.813Z,20.27
2018-02-07T19:15:15.129Z,18.80
2018-02-07T19:17:43.421Z,18.40
2018-02-07T19:20:11.730Z,19.30
2018-02-07T19:22:40.038Z,19.50
2018-02-07T19:25:08.334Z,29.20
2018-02-07T19:27:36.616Z,30.53
2018-02-07T19:30:05.250Z,24.70
2018-02-07T19:32:34.364Z,22.83
2018-02-07T19:35:02.819Z,23.43
2018-02-07T19:37:31.115Z,20.13
2018-02-07T19:39:59.617Z,18.97
2018-02-07T19:42:27.978Z,18.63
2018-02-07T19:44:56.264Z,20.53
2018-02-07T19:47:25.381Z,19.47
2018-02-07T19:49:53.928Z,24.60
2018-02-07T19:52:22.218Z,21.77
2018-02-07T19:54:50.502Z,21.33
2018-02-07T19:57:18.812Z,19.43
2018-02-07T19:59:47.886Z,18.67
2018-02-07T20:02:16.207Z,19.67
2018-02-07T20:04:44.479Z,19.33
2018-02-07T20:07:12.750Z,18.57
2018-02-07T20:09:41.044Z,23.60
2018-02-07T20:12:09.322Z,22.47
2018-02-07T20:14:37.602Z,24.03
2018-02-07T20:17:05.710Z,24.13
2018-02-07T20:19:33.984Z,22.13
2018-02-07T20:22:02.261Z,21.80
2018-02-07T20:24:30.543Z,20.20
2018-02-07T20:26:58.820Z,19.20
2018-02-07T20:29:27.290Z,22.30
2018-02-07T20:31:55.600Z,23.23
2018-02-07T20:34:23.886Z,21.33
2018-02-07T20:36:52.156Z,20.43
2018-02-07T20:39:20.724Z,21.03
2018-02-07T20:41:49.348Z,20.80
2018-02-07T20:44:17.711Z,21.33
2018-02-07T20:46:46.022Z,20.37
2018-02-07T20:49:14.368Z,19.37
2018-02-07T20:56:48.965Z,18.03
2018-02-07T20:59:17.262Z,18.67
2018-02-07T21:01:47.953Z,18.80
2018-02-07T21:04:16.222Z,21.20
2018-02-07T21:06:44.513Z,21.97
2018-02-07T21:09:12.779Z,17.97
2018-02-07T21:11:41.872Z,21.20
2018-02-07T21:14:10.181Z,23.30
2018-02-07T21:16:38.459Z,19.60
2018-02-07T21:19:06.736Z,19.33
2018-02-07T21:21:35.018Z,18.10
2018-02-07T21:24:03.316Z,18.43
2018-02-07T21:26:31.589Z,21.17
2018-02-07T21:29:00.817Z,18.57
2018-02-07T21:31:29.118Z,19.67
2018-02-07T21:33:57.610Z,20.23
2018-02-07T21:36:25.889Z,22.87
2018-02-07T21:38:54.296Z,19.97
2018-02-07T21:41:23.142Z,19.93
2018-02-07T21:43:51.231Z,22.83
2018-02-07T21:46:19.338Z,21.10
2018-02-07T21:48:47.638Z,20.37
2018-02-07T21:51:15.915Z,19.87
2018-02-07T21:53:44.179Z,20.10
2018-02-07T21:56:12.463Z,22.50
2018-02-07T21:58:40.740Z,20.60
2018-02-07T22:01:09.031Z,20.83
2018-02-07T22:03:37.303Z,20.83
2018-02-07T22:06:05.613Z,20.47
2018-02-07T22:08:33.889Z,21.70
2018-02-07T22:11:02.165Z,21.00
2018-02-07T22:13:30.427Z,20.53
2018-02-07T22:15:58.534Z,22.77
2018-02-07T22:18:26.808Z,20.33
2018-02-07T22:20:55.090Z,20.13
2018-02-07T22:23:23.367Z,20.57
2018-02-07T22:25:52.411Z,20.57
2018-02-07T22:28:20.699Z,20.50
2018-02-07T22:30:48.971Z,22.70
2018-02-07T22:33:17.258Z,20.37
2018-02-07T22:35:45.543Z,21.80
2018-02-07T22:38:13.818Z,23.47
2018-02-07T22:40:42.102Z,19.90
2018-02-07T22:43:10.369Z,21.47
2018-02-07T22:45:38.665Z,22.13
2018-02-07T22:48:06.933Z,21.30
2018-02-07T22:50:35.202Z,21.80
2018-02-07T22:53:03.476Z,21.23
2018-02-07T22:55:31.755Z,21.50
2018-02-07T22:58:00.058Z,23.60
2018-02-07T23:00:28.324Z,21.07
2018-02-07T23:02:56.605Z,20.77
2018-02-07T23:05:24.874Z,20.17
2018-02-07T23:07:53.163Z,21.50
2018-02-07T23:10:21.501Z,21.10
2018-02-07T23:12:50.080Z,19.07
2018-02-07T23:15:18.355Z,20.63
2018-02-07T23:17:46.643Z,23.50
2018-02-07T23:20:14.902Z,22.53
2018-02-07T23:22:43.161Z,23.30
2018-02-07T23:25:11.438Z,21.87
2018-02-07T23:27:39.708Z,22.73
2018-02-07T23:30:07.989Z,19.70
2018-02-07T23:32:36.271Z,21.63
2018-02-07T23:35:04.550Z,20.17
2018-02-07T23:37:32.843Z,22.53
2018-02-07T23:40:01.113Z,20.93
2018-02-07T23:42:29.610Z,21.03
2018-02-07T23:44:57.868Z,24.20
2018-02-07T23:47:26.149Z,23.43
2018-02-07T23:49:54.405Z,22.07
2018-02-07T23:52:22.710Z,22.90
2018-02-07T23:54:51.398Z,24.40
2018-02-07T23:57:19.703Z,23.10
2018-02-07T23:59:48.896Z,23.87
